Saint Louis, Canada
Current Conditions -  °F | °C
As of 6:00 PM on Friday 21 Nov 2014 (Local Time) from CYPA Reporting Station
Overcast Overcast  
Wind Chill: 23°   Ceiling: 1600
Heat Index: 30°   Visibility: 12mi
Dew Point: 27°   Wind: 8mph
Humidity: 86%   Direction: 30°NNE
Pressure: 29.56"   Gusts: NA
Location:  52.92°N, 105.8°W
Report Text: CYPA 220000Z 03007KT 12SM OVC016 M01/M03 A2956 RMK SC8 SLP033
Loading
Personal Weather Stations






























Interactive Weather Map New forecast layout! Learn more

10-Day Weather Forecast

Advertisements
Track Severe Weather on mobile